sensor_id;sensor_type;location;lat;lon;timestamp;temperature;humidity
7143;DHT22;3613;48.902;9.204;2022-08-19T00:00:37;20.80;99.90
7143;DHT22;3613;48.902;9.204;2022-08-19T00:03:05;20.80;99.90
7143;DHT22;3613;48.902;9.204;2022-08-19T00:05:32;20.80;99.90
7143;DHT22;3613;48.902;9.204;2022-08-19T00:07:58;20.80;99.90
7143;DHT22;3613;48.902;9.204;2022-08-19T00:10:26;20.80;99.90
7143;DHT22;3613;48.902;9.204;2022-08-19T00:12:54;20.80;99.90
7143;DHT22;3613;48.902;9.204;2022-08-19T00:15:21;20.80;99.90
7143;DHT22;3613;48.902;9.204;2022-08-19T00:17:47;20.80;99.90
7143;DHT22;3613;48.902;9.204;2022-08-19T00:20:16;20.80;99.90
7143;DHT22;3613;48.902;9.204;2022-08-19T00:22:45;20.80;99.90
7143;DHT22;3613;48.902;9.204;2022-08-19T00:25:12;20.80;99.90
7143;DHT22;3613;48.902;9.204;2022-08-19T00:27:38;20.80;99.90
7143;DHT22;3613;48.902;9.204;2022-08-19T00:30:08;20.80;99.90
7143;DHT22;3613;48.902;9.204;2022-08-19T00:32:35;20.80;99.90
7143;DHT22;3613;48.902;9.204;2022-08-19T00:35:02;20.80;99.90
7143;DHT22;3613;48.902;9.204;2022-08-19T00:37:28;20.80;99.90
7143;DHT22;3613;48.902;9.204;2022-08-19T00:39:54;20.80;99.90
7143;DHT22;3613;48.902;9.204;2022-08-19T00:42:21;20.80;99.90
7143;DHT22;3613;48.902;9.204;2022-08-19T00:44:48;20.80;99.90
7143;DHT22;3613;48.902;9.204;2022-08-19T00:47:16;20.80;99.90
7143;DHT22;3613;48.902;9.204;2022-08-19T00:49:45;20.80;99.90
7143;DHT22;3613;48.902;9.204;2022-08-19T00:52:20;20.90;99.90
7143;DHT22;3613;48.902;9.204;2022-08-19T00:54:47;20.80;99.90
7143;DHT22;3613;48.902;9.204;2022-08-19T00:57:15;20.80;99.90
7143;DHT22;3613;48.902;9.204;2022-08-19T00:59:45;20.80;99.90
7143;DHT22;3613;48.902;9.204;2022-08-19T01:02:14;20.80;99.90
7143;DHT22;3613;48.902;9.204;2022-08-19T01:04:43;20.70;99.90
7143;DHT22;3613;48.902;9.204;2022-08-19T01:07:11;20.80;99.90
7143;DHT22;3613;48.902;9.204;2022-08-19T01:09:39;20.70;99.90
7143;DHT22;3613;48.902;9.204;2022-08-19T01:12:07;20.80;99.90
7143;DHT22;3613;48.902;9.204;2022-08-19T01:14:34;20.70;99.90
7143;DHT22;3613;48.902;9.204;2022-08-19T01:17:00;20.70;99.90
7143;DHT22;3613;48.902;9.204;2022-08-19T01:19:35;20.70;99.90
7143;DHT22;3613;48.902;9.204;2022-08-19T01:22:12;20.70;99.90
7143;DHT22;3613;48.902;9.204;2022-08-19T01:24:40;20.70;99.90
7143;DHT22;3613;48.902;9.204;2022-08-19T01:27:08;20.70;99.90
7143;DHT22;3613;48.902;9.204;2022-08-19T01:29:38;20.70;99.90
7143;DHT22;3613;48.902;9.204;2022-08-19T01:32:04;20.70;99.90
7143;DHT22;3613;48.902;9.204;2022-08-19T01:34:33;20.70;99.90
7143;DHT22;3613;48.902;9.204;2022-08-19T01:37:06;20.70;99.90
7143;DHT22;3613;48.902;9.204;2022-08-19T01:39:35;20.70;99.90
7143;DHT22;3613;48.902;9.204;2022-08-19T01:42:01;20.70;99.90
7143;DHT22;3613;48.902;9.204;2022-08-19T01:44:28;20.70;99.90
7143;DHT22;3613;48.902;9.204;2022-08-19T01:46:54;20.70;99.90
7143;DHT22;3613;48.902;9.204;2022-08-19T01:49:22;20.60;99.90
7143;DHT22;3613;48.902;9.204;2022-08-19T01:51:50;20.60;99.90
7143;DHT22;3613;48.902;9.204;2022-08-19T01:54:17;20.60;99.90
7143;DHT22;3613;48.902;9.204;2022-08-19T01:56:46;20.60;99.90
7143;DHT22;3613;48.902;9.204;2022-08-19T01:59:17;20.60;99.90
7143;DHT22;3613;48.902;9.204;2022-08-19T02:01:46;20.60;99.90
7143;DHT22;3613;48.902;9.204;2022-08-19T02:04:12;20.50;99.90
7143;DHT22;3613;48.902;9.204;2022-08-19T02:06:38;20.50;99.90
7143;DHT22;3613;48.902;9.204;2022-08-19T02:09:07;20.50;99.90
7143;DHT22;3613;48.902;9.204;2022-08-19T02:11:36;20.50;99.90
7143;DHT22;3613;48.902;9.204;2022-08-19T02:14:05;20.50;99.90
7143;DHT22;3613;48.902;9.204;2022-08-19T02:16:32;20.50;99.90
7143;DHT22;3613;48.902;9.204;2022-08-19T02:19:00;20.40;99.90
7143;DHT22;3613;48.902;9.204;2022-08-19T02:21:29;20.40;99.90
7143;DHT22;3613;48.902;9.204;2022-08-19T02:23:55;20.40;99.90
7143;DHT22;3613;48.902;9.204;2022-08-19T02:26:22;20.40;99.90
7143;DHT22;3613;48.902;9.204;2022-08-19T02:28:48;20.40;99.90
7143;DHT22;3613;48.902;9.204;2022-08-19T02:31:18;20.40;99.90
7143;DHT22;3613;48.902;9.204;2022-08-19T02:33:48;20.30;99.90
7143;DHT22;3613;48.902;9.204;2022-08-19T02:36:16;20.30;99.90
7143;DHT22;3613;48.902;9.204;2022-08-19T02:38:42;20.20;99.90
7143;DHT22;3613;48.902;9.204;2022-08-19T02:41:16;20.20;99.90
7143;DHT22;3613;48.902;9.204;2022-08-19T02:43:45;20.20;99.90
7143;DHT22;3613;48.902;9.204;2022-08-19T02:46:20;20.20;99.90
7143;DHT22;3613;48.902;9.204;2022-08-19T02:48:51;20.20;99.90
7143;DHT22;3613;48.902;9.204;2022-08-19T02:51:27;20.20;99.90
7143;DHT22;3613;48.902;9.204;2022-08-19T02:53:53;20.20;99.90
7143;DHT22;3613;48.902;9.204;2022-08-19T02:56:24;20.20;99.90
7143;DHT22;3613;48.902;9.204;2022-08-19T02:58:51;20.20;99.90
7143;DHT22;3613;48.902;9.204;2022-08-19T03:01:25;19.10;99.90
7143;DHT22;3613;48.902;9.204;2022-08-19T03:03:52;20.20;99.90
7143;DHT22;3613;48.902;9.204;2022-08-19T03:06:18;20.10;99.90
7143;DHT22;3613;48.902;9.204;2022-08-19T03:08:46;20.10;99.90
7143;DHT22;3613;48.902;9.204;2022-08-19T03:11:26;20.00;99.90
7143;DHT22;3613;48.902;9.204;2022-08-19T03:13:53;20.00;99.90
7143;DHT22;3613;48.902;9.204;2022-08-19T03:16:21;18.80;99.90
7143;DHT22;3613;48.902;9.204;2022-08-19T03:18:47;19.80;99.90
7143;DHT22;3613;48.902;9.204;2022-08-19T03:21:18;19.70;99.90
7143;DHT22;3613;48.902;9.204;2022-08-19T03:23:44;19.70;99.90
7143;DHT22;3613;48.902;9.204;2022-08-19T03:26:10;19.60;99.90
7143;DHT22;3613;48.902;9.204;2022-08-19T03:28:38;19.50;99.90
7143;DHT22;3613;48.902;9.204;2022-08-19T03:31:06;19.50;99.90
7143;DHT22;3613;48.902;9.204;2022-08-19T03:33:33;19.50;99.90
7143;DHT22;3613;48.902;9.204;2022-08-19T03:36:07;19.40;99.90
7143;DHT22;3613;48.902;9.204;2022-08-19T03:38:39;19.50;99.90
7143;DHT22;3613;48.902;9.204;2022-08-19T03:41:08;19.50;99.90
7143;DHT22;3613;48.902;9.204;2022-08-19T03:43:36;19.50;99.90
7143;DHT22;3613;48.902;9.204;2022-08-19T03:46:14;19.50;99.90
7143;DHT22;3613;48.902;9.204;2022-08-19T03:48:40;19.50;99.90
7143;DHT22;3613;48.902;9.204;2022-08-19T03:51:14;19.60;99.90
7143;DHT22;3613;48.902;9.204;2022-08-19T03:53:42;19.50;99.90
7143;DHT22;3613;48.902;9.204;2022-08-19T03:56:09;19.50;99.90
7143;DHT22;3613;48.902;9.204;2022-08-19T03:58:35;19.60;99.90
7143;DHT22;3613;48.902;9.204;2022-08-19T04:01:07;19.60;99.90
7143;DHT22;3613;48.902;9.204;2022-08-19T04:03:33;19.50;99.90
7143;DHT22;3613;48.902;9.204;2022-08-19T04:09:08;19.60;99.90
7143;DHT22;3613;48.902;9.204;2022-08-19T04:11:43;19.50;99.90
7143;DHT22;3613;48.902;9.204;2022-08-19T04:14:11;19.60;99.90
7143;DHT22;3613;48.902;9.204;2022-08-19T04:16:36;19.60;99.90
7143;DHT22;3613;48.902;9.204;2022-08-19T04:19:03;19.60;99.90
7143;DHT22;3613;48.902;9.204;2022-08-19T04:21:29;19.50;99.90
7143;DHT22;3613;48.902;9.204;2022-08-19T04:23:56;19.50;99.90
7143;DHT22;3613;48.902;9.204;2022-08-19T04:26:27;19.60;99.90
7143;DHT22;3613;48.902;9.204;2022-08-19T04:28:54;19.60;99.90
7143;DHT22;3613;48.902;9.204;2022-08-19T04:31:24;19.60;99.90
7143;DHT22;3613;48.902;9.204;2022-08-19T04:33:52;19.70;99.90
7143;DHT22;3613;48.902;9.204;2022-08-19T04:36:30;19.60;99.90
7143;DHT22;3613;48.902;9.204;2022-08-19T04:38:59;19.60;99.90
7143;DHT22;3613;48.902;9.204;2022-08-19T04:41:28;19.60;99.90
7143;DHT22;3613;48.902;9.204;2022-08-19T04:44:13;19.60;99.90
7143;DHT22;3613;48.902;9.204;2022-08-19T04:46:39;19.60;99.90
7143;DHT22;3613;48.902;9.204;2022-08-19T04:49:06;19.70;99.90
7143;DHT22;3613;48.902;9.204;2022-08-19T04:51:33;19.70;99.90
7143;DHT22;3613;48.902;9.204;2022-08-19T04:54:02;19.70;99.90
7143;DHT22;3613;48.902;9.204;2022-08-19T04:56:28;19.70;99.90
7143;DHT22;3613;48.902;9.204;2022-08-19T04:58:59;19.70;99.90
7143;DHT22;3613;48.902;9.204;2022-08-19T05:01:30;19.80;99.90
7143;DHT22;3613;48.902;9.204;2022-08-19T05:03:58;19.80;99.90
7143;DHT22;3613;48.902;9.204;2022-08-19T05:06:24;19.80;99.90
7143;DHT22;3613;48.902;9.204;2022-08-19T05:08:52;19.80;99.90
7143;DHT22;3613;48.902;9.204;2022-08-19T05:11:22;19.90;99.90
7143;DHT22;3613;48.902;9.204;2022-08-19T05:13:53;19.90;99.90
7143;DHT22;3613;48.902;9.204;2022-08-19T05:16:20;20.00;99.90
7143;DHT22;3613;48.902;9.204;2022-08-19T05:18:47;20.00;99.90
7143;DHT22;3613;48.902;9.204;2022-08-19T05:21:34;20.00;99.90
7143;DHT22;3613;48.902;9.204;2022-08-19T05:24:20;20.10;99.90
7143;DHT22;3613;48.902;9.204;2022-08-19T05:26:48;20.10;99.90
7143;DHT22;3613;48.902;9.204;2022-08-19T05:29:16;20.10;99.90
7143;DHT22;3613;48.902;9.204;2022-08-19T05:31:47;20.10;99.90
7143;DHT22;3613;48.902;9.204;2022-08-19T05:34:22;20.10;99.90
7143;DHT22;3613;48.902;9.204;2022-08-19T05:36:56;20.10;99.90
7143;DHT22;3613;48.902;9.204;2022-08-19T05:39:24;20.10;99.90
7143;DHT22;3613;48.902;9.204;2022-08-19T05:42:00;18.70;99.90
7143;DHT22;3613;48.902;9.204;2022-08-19T05:44:28;20.10;99.90
7143;DHT22;3613;48.902;9.204;2022-08-19T05:46:59;20.10;99.90
7143;DHT22;3613;48.902;9.204;2022-08-19T05:49:26;20.10;99.90
7143;DHT22;3613;48.902;9.204;2022-08-19T05:51:52;20.10;99.90
7143;DHT22;3613;48.902;9.204;2022-08-19T05:54:19;20.10;99.90
7143;DHT22;3613;48.902;9.204;2022-08-19T05:56:45;20.10;99.90
7143;DHT22;3613;48.902;9.204;2022-08-19T05:59:15;20.10;99.90
7143;DHT22;3613;48.902;9.204;2022-08-19T06:01:44;20.10;99.90
7143;DHT22;3613;48.902;9.204;2022-08-19T06:04:11;20.10;99.90
7143;DHT22;3613;48.902;9.204;2022-08-19T06:06:39;20.10;99.90
7143;DHT22;3613;48.902;9.204;2022-08-19T06:09:06;20.10;99.90
7143;DHT22;3613;48.902;9.204;2022-08-19T06:14:06;20.20;99.90
7143;DHT22;3613;48.902;9.204;2022-08-19T06:16:37;20.10;99.90
7143;DHT22;3613;48.902;9.204;2022-08-19T06:19:07;20.20;99.90
7143;DHT22;3613;48.902;9.204;2022-08-19T06:21:35;20.20;99.90
7143;DHT22;3613;48.902;9.204;2022-08-19T06:24:05;20.30;99.90
7143;DHT22;3613;48.902;9.204;2022-08-19T06:26:33;20.30;99.90
7143;DHT22;3613;48.902;9.204;2022-08-19T06:29:00;20.30;99.90
7143;DHT22;3613;48.902;9.204;2022-08-19T06:31:27;20.40;99.90
7143;DHT22;3613;48.902;9.204;2022-08-19T06:33:53;20.40;99.90
7143;DHT22;3613;48.902;9.204;2022-08-19T06:36:27;20.50;99.90
7143;DHT22;3613;48.902;9.204;2022-08-19T06:38:55;20.60;99.90
7143;DHT22;3613;48.902;9.204;2022-08-19T06:41:27;20.60;99.90
7143;DHT22;3613;48.902;9.204;2022-08-19T06:43:54;20.70;99.90
7143;DHT22;3613;48.902;9.204;2022-08-19T06:46:20;20.70;99.90
7143;DHT22;3613;48.902;9.204;2022-08-19T06:48:49;20.80;99.90
7143;DHT22;3613;48.902;9.204;2022-08-19T06:51:16;20.80;99.90
7143;DHT22;3613;48.902;9.204;2022-08-19T06:53:45;20.80;99.90
7143;DHT22;3613;48.902;9.204;2022-08-19T06:56:13;20.70;99.90
7143;DHT22;3613;48.902;9.204;2022-08-19T06:58:39;20.60;99.90
7143;DHT22;3613;48.902;9.204;2022-08-19T07:01:05;20.70;99.90
7143;DHT22;3613;48.902;9.204;2022-08-19T07:03:33;20.60;99.90
7143;DHT22;3613;48.902;9.204;2022-08-19T07:06:07;20.60;99.90
7143;DHT22;3613;48.902;9.204;2022-08-19T07:08:35;20.60;99.90
7143;DHT22;3613;48.902;9.204;2022-08-19T07:11:05;20.50;99.90
7143;DHT22;3613;48.902;9.204;2022-08-19T07:13:32;20.50;99.90
7143;DHT22;3613;48.902;9.204;2022-08-19T07:16:04;20.40;99.90
7143;DHT22;3613;48.902;9.204;2022-08-19T07:18:30;20.50;99.90
7143;DHT22;3613;48.902;9.204;2022-08-19T07:21:06;20.60;99.90
7143;DHT22;3613;48.902;9.204;2022-08-19T07:23:33;20.70;99.90
7143;DHT22;3613;48.902;9.204;2022-08-19T07:26:07;20.90;99.90
7143;DHT22;3613;48.902;9.204;2022-08-19T07:28:36;21.00;99.90
7143;DHT22;3613;48.902;9.204;2022-08-19T07:31:09;21.10;99.90
7143;DHT22;3613;48.902;9.204;2022-08-19T07:33:37;21.00;99.90
7143;DHT22;3613;48.902;9.204;2022-08-19T07:36:07;21.00;99.90
7143;DHT22;3613;48.902;9.204;2022-08-19T07:38:34;20.90;99.90
7143;DHT22;3613;48.902;9.204;2022-08-19T07:41:01;20.80;99.90
7143;DHT22;3613;48.902;9.204;2022-08-19T07:43:29;20.70;99.90
7143;DHT22;3613;48.902;9.204;2022-08-19T07:45:55;20.60;99.90
7143;DHT22;3613;48.902;9.204;2022-08-19T07:48:23;20.60;99.90
7143;DHT22;3613;48.902;9.204;2022-08-19T07:50:52;20.60;99.90
7143;DHT22;3613;48.902;9.204;2022-08-19T07:53:22;20.50;99.90
7143;DHT22;3613;48.902;9.204;2022-08-19T07:55:53;20.40;99.90
7143;DHT22;3613;48.902;9.204;2022-08-19T07:58:21;20.50;99.90
7143;DHT22;3613;48.902;9.204;2022-08-19T08:00:49;20.50;99.90
7143;DHT22;3613;48.902;9.204;2022-08-19T08:03:16;20.50;99.90
7143;DHT22;3613;48.902;9.204;2022-08-19T08:05:43;20.60;99.90
7143;DHT22;3613;48.902;9.204;2022-08-19T08:08:28;20.60;99.90
7143;DHT22;3613;48.902;9.204;2022-08-19T08:11:14;20.60;99.90
7143;DHT22;3613;48.902;9.204;2022-08-19T08:13:40;20.60;99.90
7143;DHT22;3613;48.902;9.204;2022-08-19T08:16:08;20.60;99.90
7143;DHT22;3613;48.902;9.204;2022-08-19T08:18:34;20.50;99.90
7143;DHT22;3613;48.902;9.204;2022-08-19T08:21:11;20.60;99.90
7143;DHT22;3613;48.902;9.204;2022-08-19T08:23:36;20.60;99.90
7143;DHT22;3613;48.902;9.204;2022-08-19T08:26:02;20.70;99.90
7143;DHT22;3613;48.902;9.204;2022-08-19T08:28:29;20.80;99.90
7143;DHT22;3613;48.902;9.204;2022-08-19T08:30:56;20.80;99.90
7143;DHT22;3613;48.902;9.204;2022-08-19T08:33:25;20.90;99.90
7143;DHT22;3613;48.902;9.204;2022-08-19T08:35:51;21.00;99.90
7143;DHT22;3613;48.902;9.204;2022-08-19T08:38:18;21.10;99.90
7143;DHT22;3613;48.902;9.204;2022-08-19T08:40:45;21.20;99.90
7143;DHT22;3613;48.902;9.204;2022-08-19T08:43:35;21.30;99.90
7143;DHT22;3613;48.902;9.204;2022-08-19T08:46:15;21.40;99.90
7143;DHT22;3613;48.902;9.204;2022-08-19T08:48:48;21.40;99.90
7143;DHT22;3613;48.902;9.204;2022-08-19T08:51:34;21.50;99.90
7143;DHT22;3613;48.902;9.204;2022-08-19T08:54:06;21.70;99.90
7143;DHT22;3613;48.902;9.204;2022-08-19T08:56:32;21.80;99.90
7143;DHT22;3613;48.902;9.204;2022-08-19T08:59:12;22.00;99.90
7143;DHT22;3613;48.902;9.204;2022-08-19T09:01:42;22.10;99.90
7143;DHT22;3613;48.902;9.204;2022-08-19T09:04:10;22.30;99.90
7143;DHT22;3613;48.902;9.204;2022-08-19T09:09:34;22.60;99.90
7143;DHT22;3613;48.902;9.204;2022-08-19T09:15:00;22.60;99.90
7143;DHT22;3613;48.902;9.204;2022-08-19T09:17:31;22.60;99.90
7143;DHT22;3613;48.902;9.204;2022-08-19T09:20:15;22.60;99.90
7143;DHT22;3613;48.902;9.204;2022-08-19T09:22:42;21.30;99.90
7143;DHT22;3613;48.902;9.204;2022-08-19T09:25:16;22.80;99.90
7143;DHT22;3613;48.902;9.204;2022-08-19T09:27:42;22.70;99.90
7143;DHT22;3613;48.902;9.204;2022-08-19T09:30:12;22.60;99.90
7143;DHT22;3613;48.902;9.204;2022-08-19T09:32:38;22.50;99.90
7143;DHT22;3613;48.902;9.204;2022-08-19T09:35:07;22.40;99.90
7143;DHT22;3613;48.902;9.204;2022-08-19T09:37:33;22.30;99.90
7143;DHT22;3613;48.902;9.204;2022-08-19T09:40:02;22.30;99.90
7143;DHT22;3613;48.902;9.204;2022-08-19T09:42:27;22.40;99.90
7143;DHT22;3613;48.902;9.204;2022-08-19T09:44:55;22.50;99.90
7143;DHT22;3613;48.902;9.204;2022-08-19T09:47:21;22.50;99.90
7143;DHT22;3613;48.902;9.204;2022-08-19T09:49:47;22.60;99.90
7143;DHT22;3613;48.902;9.204;2022-08-19T09:52:14;22.70;99.90
7143;DHT22;3613;48.902;9.204;2022-08-19T09:54:41;22.70;99.90
7143;DHT22;3613;48.902;9.204;2022-08-19T09:57:09;22.80;99.90
7143;DHT22;3613;48.902;9.204;2022-08-19T09:59:35;22.80;99.90
7143;DHT22;3613;48.902;9.204;2022-08-19T10:02:01;22.80;99.90
7143;DHT22;3613;48.902;9.204;2022-08-19T10:04:29;22.80;99.90
7143;DHT22;3613;48.902;9.204;2022-08-19T10:07:14;22.80;99.90
7143;DHT22;3613;48.902;9.204;2022-08-19T10:09:40;22.80;99.90
7143;DHT22;3613;48.902;9.204;2022-08-19T10:12:07;22.80;99.90
7143;DHT22;3613;48.902;9.204;2022-08-19T10:14:35;22.70;99.90
7143;DHT22;3613;48.902;9.204;2022-08-19T10:17:01;22.70;99.90
7143;DHT22;3613;48.902;9.204;2022-08-19T10:19:28;22.60;99.90
7143;DHT22;3613;48.902;9.204;2022-08-19T10:21:57;22.60;99.90
7143;DHT22;3613;48.902;9.204;2022-08-19T10:24:25;22.70;99.90
7143;DHT22;3613;48.902;9.204;2022-08-19T10:26:52;22.70;99.90
7143;DHT22;3613;48.902;9.204;2022-08-19T10:29:18;22.60;99.90
7143;DHT22;3613;48.902;9.204;2022-08-19T10:31:43;22.70;99.90
7143;DHT22;3613;48.902;9.204;2022-08-19T10:34:10;22.70;99.90
7143;DHT22;3613;48.902;9.204;2022-08-19T10:36:38;22.50;99.90
7143;DHT22;3613;48.902;9.204;2022-08-19T10:39:06;22.40;99.90
7143;DHT22;3613;48.902;9.204;2022-08-19T10:41:37;22.50;99.90
7143;DHT22;3613;48.902;9.204;2022-08-19T10:44:10;22.40;99.90
7143;DHT22;3613;48.902;9.204;2022-08-19T10:46:39;22.50;99.90
7143;DHT22;3613;48.902;9.204;2022-08-19T10:49:06;22.60;99.90
7143;DHT22;3613;48.902;9.204;2022-08-19T10:51:32;22.80;99.90
7143;DHT22;3613;48.902;9.204;2022-08-19T10:54:17;23.00;99.90
7143;DHT22;3613;48.902;9.204;2022-08-19T10:56:45;23.20;99.90
7143;DHT22;3613;48.902;9.204;2022-08-19T10:59:23;23.50;99.90
7143;DHT22;3613;48.902;9.204;2022-08-19T11:01:50;23.60;99.90
7143;DHT22;3613;48.902;9.204;2022-08-19T11:04:17;24.00;99.90
7143;DHT22;3613;48.902;9.204;2022-08-19T11:06:45;24.30;99.90
7143;DHT22;3613;48.902;9.204;2022-08-19T11:09:16;24.40;99.90
7143;DHT22;3613;48.902;9.204;2022-08-19T11:11:42;24.60;99.90
7143;DHT22;3613;48.902;9.204;2022-08-19T11:14:10;24.70;99.90
7143;DHT22;3613;48.902;9.204;2022-08-19T11:16:39;25.00;99.90
7143;DHT22;3613;48.902;9.204;2022-08-19T11:19:07;25.00;99.90
7143;DHT22;3613;48.902;9.204;2022-08-19T11:21:40;25.00;99.90
7143;DHT22;3613;48.902;9.204;2022-08-19T11:24:13;25.00;99.90
7143;DHT22;3613;48.902;9.204;2022-08-19T11:26:41;24.80;99.90
7143;DHT22;3613;48.902;9.204;2022-08-19T11:29:08;24.70;99.90
7143;DHT22;3613;48.902;9.204;2022-08-19T11:31:41;24.60;99.90
7143;DHT22;3613;48.902;9.204;2022-08-19T11:34:12;24.40;99.90
7143;DHT22;3613;48.902;9.204;2022-08-19T11:36:40;24.30;99.90
7143;DHT22;3613;48.902;9.204;2022-08-19T11:39:09;24.20;99.90
7143;DHT22;3613;48.902;9.204;2022-08-19T11:41:37;24.10;99.90
7143;DHT22;3613;48.902;9.204;2022-08-19T11:44:03;23.90;99.90
7143;DHT22;3613;48.902;9.204;2022-08-19T11:46:30;23.70;99.90
7143;DHT22;3613;48.902;9.204;2022-08-19T11:49:00;23.40;99.90
7143;DHT22;3613;48.902;9.204;2022-08-19T11:51:27;23.20;99.90
7143;DHT22;3613;48.902;9.204;2022-08-19T11:53:54;23.10;99.90
7143;DHT22;3613;48.902;9.204;2022-08-19T11:56:21;23.10;99.90
7143;DHT22;3613;48.902;9.204;2022-08-19T11:58:50;23.10;99.90
7143;DHT22;3613;48.902;9.204;2022-08-19T12:01:19;23.10;99.90
7143;DHT22;3613;48.902;9.204;2022-08-19T12:03:47;23.10;99.90
7143;DHT22;3613;48.902;9.204;2022-08-19T12:06:17;23.10;99.90
7143;DHT22;3613;48.902;9.204;2022-08-19T12:08:44;23.30;99.90
7143;DHT22;3613;48.902;9.204;2022-08-19T12:11:11;23.60;99.90
7143;DHT22;3613;48.902;9.204;2022-08-19T12:13:38;23.90;99.90
7143;DHT22;3613;48.902;9.204;2022-08-19T12:16:20;24.20;99.90
7143;DHT22;3613;48.902;9.204;2022-08-19T12:18:51;24.50;99.90
7143;DHT22;3613;48.902;9.204;2022-08-19T12:21:22;24.90;99.90
7143;DHT22;3613;48.902;9.204;2022-08-19T12:23:52;25.10;99.90
7143;DHT22;3613;48.902;9.204;2022-08-19T12:26:18;25.20;99.90
7143;DHT22;3613;48.902;9.204;2022-08-19T12:28:44;25.40;99.90
7143;DHT22;3613;48.902;9.204;2022-08-19T12:31:11;25.40;99.90
7143;DHT22;3613;48.902;9.204;2022-08-19T12:33:38;25.20;99.90
7143;DHT22;3613;48.902;9.204;2022-08-19T12:36:06;25.00;99.90
7143;DHT22;3613;48.902;9.204;2022-08-19T12:38:36;24.80;99.90
7143;DHT22;3613;48.902;9.204;2022-08-19T12:41:03;24.60;99.90
7143;DHT22;3613;48.902;9.204;2022-08-19T12:43:37;24.50;99.90
7143;DHT22;3613;48.902;9.204;2022-08-19T12:46:04;24.30;99.90
7143;DHT22;3613;48.902;9.204;2022-08-19T12:48:33;24.20;99.90
7143;DHT22;3613;48.902;9.204;2022-08-19T12:51:05;24.10;99.90
7143;DHT22;3613;48.902;9.204;2022-08-19T12:53:33;24.10;99.90
7143;DHT22;3613;48.902;9.204;2022-08-19T12:56:01;24.00;99.90
7143;DHT22;3613;48.902;9.204;2022-08-19T12:58:30;24.10;99.90
7143;DHT22;3613;48.902;9.204;2022-08-19T13:00:56;23.90;99.90
7143;DHT22;3613;48.902;9.204;2022-08-19T13:03:22;23.90;99.90
7143;DHT22;3613;48.902;9.204;2022-08-19T13:05:52;23.80;99.90
7143;DHT22;3613;48.902;9.204;2022-08-19T13:08:18;23.60;99.90
7143;DHT22;3613;48.902;9.204;2022-08-19T13:10:46;23.50;99.90
7143;DHT22;3613;48.902;9.204;2022-08-19T13:13:12;23.40;99.90
7143;DHT22;3613;48.902;9.204;2022-08-19T13:15:42;23.40;99.90
7143;DHT22;3613;48.902;9.204;2022-08-19T13:18:11;23.30;99.90
7143;DHT22;3613;48.902;9.204;2022-08-19T13:20:42;23.30;99.90
7143;DHT22;3613;48.902;9.204;2022-08-19T13:23:09;23.20;99.90
7143;DHT22;3613;48.902;9.204;2022-08-19T13:25:35;23.30;99.90
7143;DHT22;3613;48.902;9.204;2022-08-19T13:28:01;23.30;99.90
7143;DHT22;3613;48.902;9.204;2022-08-19T13:30:27;23.30;99.90
7143;DHT22;3613;48.902;9.204;2022-08-19T13:33:28;23.20;99.90
7143;DHT22;3613;48.902;9.204;2022-08-19T13:35:59;23.30;99.90
7143;DHT22;3613;48.902;9.204;2022-08-19T13:38:26;23.40;99.90
7143;DHT22;3613;48.902;9.204;2022-08-19T13:40:54;23.40;99.90
7143;DHT22;3613;48.902;9.204;2022-08-19T13:43:22;23.40;99.90
7143;DHT22;3613;48.902;9.204;2022-08-19T13:45:49;23.40;99.90
7143;DHT22;3613;48.902;9.204;2022-08-19T13:48:24;23.40;99.90
7143;DHT22;3613;48.902;9.204;2022-08-19T13:50:51;23.40;99.90
7143;DHT22;3613;48.902;9.204;2022-08-19T13:53:17;23.40;99.90
7143;DHT22;3613;48.902;9.204;2022-08-19T13:55:43;23.20;99.90
7143;DHT22;3613;48.902;9.204;2022-08-19T13:58:12;22.30;99.90
7143;DHT22;3613;48.902;9.204;2022-08-19T14:00:42;23.00;99.90
7143;DHT22;3613;48.902;9.204;2022-08-19T14:03:08;22.90;99.90
7143;DHT22;3613;48.902;9.204;2022-08-19T14:05:36;22.80;99.90
7143;DHT22;3613;48.902;9.204;2022-08-19T14:08:02;22.70;99.90
7143;DHT22;3613;48.902;9.204;2022-08-19T14:10:31;22.70;99.90
7143;DHT22;3613;48.902;9.204;2022-08-19T14:13:01;22.70;99.90
7143;DHT22;3613;48.902;9.204;2022-08-19T14:15:28;22.70;99.90
7143;DHT22;3613;48.902;9.204;2022-08-19T14:17:56;22.80;99.90
7143;DHT22;3613;48.902;9.204;2022-08-19T14:20:23;22.80;99.90
7143;DHT22;3613;48.902;9.204;2022-08-19T14:22:53;22.70;99.90
7143;DHT22;3613;48.902;9.204;2022-08-19T14:25:26;22.60;99.90
7143;DHT22;3613;48.902;9.204;2022-08-19T14:27:51;22.50;99.90
7143;DHT22;3613;48.902;9.204;2022-08-19T14:30:22;22.50;99.90
7143;DHT22;3613;48.902;9.204;2022-08-19T14:32:48;22.30;99.90
7143;DHT22;3613;48.902;9.204;2022-08-19T14:35:15;22.20;99.90
7143;DHT22;3613;48.902;9.204;2022-08-19T14:37:42;22.10;99.90
7143;DHT22;3613;48.902;9.204;2022-08-19T14:40:11;21.90;99.90
7143;DHT22;3613;48.902;9.204;2022-08-19T14:42:37;21.90;99.90
7143;DHT22;3613;48.902;9.204;2022-08-19T14:45:04;21.80;99.90
7143;DHT22;3613;48.902;9.204;2022-08-19T14:47:30;21.70;99.90
7143;DHT22;3613;48.902;9.204;2022-08-19T14:49:56;21.80;99.90
7143;DHT22;3613;48.902;9.204;2022-08-19T14:52:22;21.70;99.90
7143;DHT22;3613;48.902;9.204;2022-08-19T14:54:50;21.80;99.90
7143;DHT22;3613;48.902;9.204;2022-08-19T14:57:19;22.10;99.90
7143;DHT22;3613;48.902;9.204;2022-08-19T14:59:45;22.30;99.90
7143;DHT22;3613;48.902;9.204;2022-08-19T15:02:11;22.50;99.90
7143;DHT22;3613;48.902;9.204;2022-08-19T15:04:39;22.70;99.90
7143;DHT22;3613;48.902;9.204;2022-08-19T15:07:05;22.80;99.90
7143;DHT22;3613;48.902;9.204;2022-08-19T15:09:33;22.90;99.90
7143;DHT22;3613;48.902;9.204;2022-08-19T15:12:02;23.00;99.90
7143;DHT22;3613;48.902;9.204;2022-08-19T15:14:28;22.90;99.90
7143;DHT22;3613;48.902;9.204;2022-08-19T15:17:05;22.80;99.90
7143;DHT22;3613;48.902;9.204;2022-08-19T15:19:32;22.60;99.90
7143;DHT22;3613;48.902;9.204;2022-08-19T15:21:58;22.50;99.90
7143;DHT22;3613;48.902;9.204;2022-08-19T15:24:26;22.50;99.90
7143;DHT22;3613;48.902;9.204;2022-08-19T15:26:53;22.40;99.90
7143;DHT22;3613;48.902;9.204;2022-08-19T15:29:23;22.40;99.90
7143;DHT22;3613;48.902;9.204;2022-08-19T15:31:53;22.40;99.90
7143;DHT22;3613;48.902;9.204;2022-08-19T15:34:22;22.40;99.90
7143;DHT22;3613;48.902;9.204;2022-08-19T15:36:48;22.30;99.90
7143;DHT22;3613;48.902;9.204;2022-08-19T15:39:13;22.40;99.90
7143;DHT22;3613;48.902;9.204;2022-08-19T15:41:41;22.40;99.90
7143;DHT22;3613;48.902;9.204;2022-08-19T15:44:15;22.50;99.90
7143;DHT22;3613;48.902;9.204;2022-08-19T15:46:44;22.60;99.90
7143;DHT22;3613;48.902;9.204;2022-08-19T15:49:12;22.60;99.90
7143;DHT22;3613;48.902;9.204;2022-08-19T15:51:39;22.80;99.90
7143;DHT22;3613;48.902;9.204;2022-08-19T15:54:08;22.80;99.90
7143;DHT22;3613;48.902;9.204;2022-08-19T15:56:34;22.90;99.90
7143;DHT22;3613;48.902;9.204;2022-08-19T15:59:18;23.00;99.90
7143;DHT22;3613;48.902;9.204;2022-08-19T16:02:02;23.00;99.90
7143;DHT22;3613;48.902;9.204;2022-08-19T16:04:47;23.00;99.90
7143;DHT22;3613;48.902;9.204;2022-08-19T16:07:31;23.00;99.90
7143;DHT22;3613;48.902;9.204;2022-08-19T16:09:59;23.00;99.90
7143;DHT22;3613;48.902;9.204;2022-08-19T16:12:27;23.00;99.90
7143;DHT22;3613;48.902;9.204;2022-08-19T16:14:56;23.00;99.90
7143;DHT22;3613;48.902;9.204;2022-08-19T16:17:22;22.90;99.90
7143;DHT22;3613;48.902;9.204;2022-08-19T16:19:49;22.90;99.90
7143;DHT22;3613;48.902;9.204;2022-08-19T16:22:17;22.80;99.90
7143;DHT22;3613;48.902;9.204;2022-08-19T16:24:42;22.70;99.90